Terminal Aerodrome Forecast
Issued by NWS

Current Version | Previous Version | Graphics & Text | Print | Product List | Glossary On
Versions: 1 2 3 4 5 6 7 8 9 10 11 12 13 14 15 16 17 18 19 20 21
000
FTUS41 KILN 041000 AAA
TAFLUK
TAF AMD
KLUK 041001Z 0410/0506 VRB02KT 4SM BR FEW150
     FM041100 19004KT P6SM SCT150
     FM041500 22008G16KT P6SM SCT060 BKN150
     FM042300 21007KT P6SM BKN060 BKN250=

USA.gov is the U.S. government's official web portal to all federal, state and local government web resources and services.